Buoy 32622

sailwx.info

Track history (hours):
 
Tides and Currents Weather Stations Pressure Air Temp Water Temp Dewpoint Dewpoint Depression Visibility Wind Speed Wind Dir Waves Ship Positions

Aadnyj

Last reported at 2014-Jul-28 08:52 UTC. Time now 2014-Jul-28 10:28 UTC.
Position S 13°05' W 152°11'.

Length 56 m.

Type: Towing. MMSI: 413600286.

Water temperature 27.8 ° C

Date/timePositionNaut miles runAvg speedWind from/ knotsBaromVisibWave heightAir tempDewpointWater temp
2014-Jul-28 08:52S 13°05' W 152°11'0 0.2 27.8
2014-Jul-28 08:11S 13°05' W 152°11'0 0.0 27.8
2014-Jul-28 08:07S 13°05' W 152°11'0 0.4 27.8
2014-Jul-28 07:16S 13°05' W 152°11'0 0.0 27.9
2014-Jul-28 07:15S 13°05' W 152°11'0 0.5 27.9
2014-Jul-28 06:28S 13°05' W 152°10'1 0.7 27.9
2014-Jul-28 04:37S 13°06' W 152°09'0 0.6 27.9
2014-Jul-28 04:01S 13°07' W 152°09'0 3.2 27.9
2014-Jul-28 03:56S 13°07' W 152°09'0 0.0 27.9
2014-Jul-28 02:56S 13°07' W 152°09'0 2.0 27.9
2014-Jul-28 02:45S 13°07' W 152°09'0 0.3 27.9
2014-Jul-28 01:57S 13°07' W 152°09'0 0.4 27.9
2014-Jul-28 01:04S 13°07' W 152°09'0 0.6 27.8
2014-Jul-28 00:16S 13°07' W 152°09'1 0.7 27.8
2014-Jul-27 22:34S 13°06' W 152°08'0 0.0 27.7
2014-Jul-27 20:24S 13°06' W 152°08'1 0.7 27.7
2014-Jul-27 19:37S 13°06' W 152°07'0 0.0 27.7
2014-Jul-27 18:45S 13°06' W 152°07'0 0.0 27.6
2014-Jul-27 18:43S 13°06' W 152°07'0 0.1 27.6
2014-Jul-27 17:29S 13°06' W 152°08'0 0.2 27.6
2014-Jul-27 15:54S 13°06' W 152°07'0 0.4 27.6
2014-Jul-27 15:29S 13°06' W 152°07'0 0.9 27.6
2014-Jul-27 15:20S 13°06' W 152°07'0 0.0 27.6
2014-Jul-27 14:13S 13°06' W 152°07'1 3.6 27.6
2014-Jul-27 14:01S 13°05' W 152°07'0 0.0 27.6
2014-Jul-27 13:22S 13°05' W 152°07'0 0.9 27.6
2014-Jul-27 13:14S 13°05' W 152°07'0 0.0 27.6
2014-Jul-27 11:44S 13°05' W 152°07'1 5.5 27.6
2014-Jul-27 11:34S 13°04' W 152°07'0 0.0 27.6
2014-Jul-27 09:16S 13°04' W 152°07'117.1 27.6
2014-Jul-27 09:11S 13°04' W 152°06'0 0.0 27.6
2014-Jul-27 08:23S 13°04' W 152°06'0 0.0 27.6
2014-Jul-27 07:38S 13°04' W 152°06'0 0.4 27.7
2014-Jul-27 07:30S 13°04' W 152°06'1 1.1 27.7
2014-Jul-27 06:44S 13°03' W 152°05'1 0.3 27.7
2014-Jul-27 05:06S 13°03' W 152°05'0 0.1 27.7
2014-Jul-27 04:26S 13°03' W 152°05'1 0.7 27.7
2014-Jul-27 03:28S 13°03' W 152°05'0 0.6 27.8
2014-Jul-27 03:02S 13°03' W 152°05'0 0.0 27.8
2014-Jul-27 02:59S 13°03' W 152°05'0 2.0 27.8
2014-Jul-27 02:45S 13°03' W 152°04'0 1.2
2014-Jul-27 02:42S 13°03' W 152°04'1 1.8 27.8
2014-Jul-27 02:06S 13°03' W 152°03'0 0.2 27.8
2014-Jul-27 01:15S 13°03' W 152°03'1 0.9 27.9
2014-Jul-27 00:30S 13°03' W 152°03'1 0.5 27.8
2014-Jul-26 22:49S 13°03' W 152°03'0 1.7 27.8
2014-Jul-26 22:46S 13°03' W 152°03'1 0.5 27.8
2014-Jul-26 20:42S 13°02' W 152°02'1 0.9 27.7
2014-Jul-26 19:57S 13°02' W 152°02'0 0.5 27.7
2014-Jul-26 19:05S 13°01' W 152°02'0 0.1 27.7
2014-Jul-26 18:10S 13°01' W 152°02'0 0.0 27.7
2014-Jul-26 18:03S 13°01' W 152°02'1 0.8 27.7
2014-Jul-26 16:25S 13°01' W 152°01'0 0.6 27.7
2014-Jul-26 15:56S 13°01' W 152°01'1 6.6 27.7
2014-Jul-26 15:49S 13°00' W 152°00'1 0.8 27.7
2014-Jul-26 14:24S 13°01' W 151°59'0 0.0 27.7
2014-Jul-26 14:15S 13°01' W 151°59'115.2 27.7
2014-Jul-26 14:10S 13°00' W 151°58'0 0.0 27.7
2014-Jul-26 13:33S 13°00' W 151°58'0 0.0 27.7
2014-Jul-26 12:40S 13°00' W 151°58'0 0.4 27.7
2014-Jul-26 11:55S 13°00' W 151°58'1 3.1 27.7
2014-Jul-26 11:45S 12°60' W 151°58'0 0.0 27.7
2014-Jul-26 10:08S 12°60' W 151°58'0 0.1 27.7
2014-Jul-26 08:45S 13°00' W 151°58'0 0.0 27.7
2014-Jul-26 08:00S 13°00' W 151°58'0 0.0 27.7
2014-Jul-26 07:57S 13°00' W 151°58'2 0.9 27.7
2014-Jul-26 06:13S 12°59' W 151°57'0 0.0 27.7
2014-Jul-26 04:00S 12°59' W 151°57'1 0.7 27.8
2014-Jul-26 03:13S 12°59' W 151°56'0 0.0 27.9
2014-Jul-26 03:10S 12°59' W 151°56'1 5.4 27.9
2014-Jul-26 03:02S 12°59' W 151°55'0 0.0 27.9
2014-Jul-26 01:29S 12°59' W 151°55'0 0.4 27.9
2014-Jul-26 00:41S 12°60' W 151°55'0 2.5 27.9
2014-Jul-26 00:30S 12°60' W 151°55'0 0.0 27.9
2014-Jul-25 23:02S 12°60' W 151°55'0 0.0 27.8
2014-Jul-25 22:59S 12°60' W 151°55'1 0.6 27.8
2014-Jul-25 21:04S 12°59' W 151°55'1 8.8 27.7
2014-Jul-25 20:59S 12°58' W 151°54'0 5.5 27.7
2014-Jul-25 20:55S 12°59' W 151°54'0 0.0
2014-Jul-25 20:15S 12°59' W 151°54'1 0.6 27.7
2014-Jul-25 19:25S 12°59' W 151°54'0 0.3 27.7
2014-Jul-25 18:38S 12°59' W 151°54'0 0.3 27.7
2014-Jul-25 16:58S 12°58' W 151°53'0 2.6 27.7
2014-Jul-25 16:55S 12°58' W 151°53'1 0.3 27.7
2014-Jul-25 15:15S 12°58' W 151°53'0 0.5 27.7
2014-Jul-25 14:29S 12°58' W 151°53'230.4 27.7
2014-Jul-25 14:26S 12°58' W 151°51'0 0.0 27.7
2014-Jul-25 12:53S 12°58' W 151°51'0 0.5 27.6
2014-Jul-25 12:06S 12°58' W 151°51'0 1.8 27.7
2014-Jul-25 11:54S 12°58' W 151°50'0 0.0 27.7
2014-Jul-25 10:22S 12°58' W 151°50'1 0.7 27.7
2014-Jul-25 09:06S 12°58' W 151°50'0 0.0 27.7
2014-Jul-25 08:15S 12°58' W 151°50'0 0.4 27.7
2014-Jul-25 07:29S 12°57' W 151°50'0 0.4 27.7
2014-Jul-25 06:35S 12°57' W 151°49'1 0.4 27.7
2014-Jul-25 04:29S 12°57' W 151°49'0 0.3 27.8
2014-Jul-25 03:30S 12°57' W 151°48'0 0.6 27.9
2014-Jul-25 03:16S 12°57' W 151°48'1 2.4 27.9
2014-Jul-25 02:50S 12°56' W 151°48'1 0.7 27.9
2014-Jul-25 01:42S 12°57' W 151°48'0 0.4 27.9
2014-Jul-25 00:52S 12°57' W 151°47'0 2.2 27.9
2014-Jul-25 00:44S 12°57' W 151°47'0 0.0 27.9
2014-Jul-24 23:13S 12°57' W 151°47'0 3.4 27.9
2014-Jul-24 23:10S 12°57' W 151°47'1 0.2 27.9
2014-Jul-24 20:38S 12°57' W 151°47'0 0.4 27.7
2014-Jul-24 19:45S 12°57' W 151°46'0 0.3 27.7
2014-Jul-24 18:59S 12°57' W 151°46'1 1.1 27.7
2014-Jul-24 18:04S 12°56' W 151°45'0 0.5 27.7
2014-Jul-24 17:26S 12°56' W 151°45'1 0.4 27.7
2014-Jul-24 15:48S 12°56' W 151°45'0 0.4 27.7
2014-Jul-24 15:03S 12°56' W 151°45'0 0.3 27.7
2014-Jul-24 14:46S 12°56' W 151°45'0 1.4 27.7
2014-Jul-24 14:38S 12°56' W 151°45'1 0.4 27.7
2014-Jul-24 13:05S 12°56' W 151°44'1 0.6 27.7
2014-Jul-24 12:16S 12°56' W 151°43'0 1.0 27.7
2014-Jul-24 12:08S 12°56' W 151°43'0 0.3 27.7
2014-Jul-24 10:35S 12°56' W 151°43'1 0.6 27.7
2014-Jul-24 08:37S 12°56' W 151°42'0 0.0 27.7
2014-Jul-24 07:54S 12°56' W 151°42'0 0.0 27.7
2014-Jul-24 07:51S 12°56' W 151°42'0 0.2 27.7
2014-Jul-24 06:59S 12°56' W 151°42'0 1.2 27.8
2014-Jul-24 06:56S 12°56' W 151°42'1 0.4 27.8
2014-Jul-24 05:02S 12°55' W 151°41'1 0.8 27.8
2014-Jul-24 04:00S 12°55' W 151°41'0 0.5 27.9
2014-Jul-24 03:53S 12°55' W 151°41'0 0.0 27.9
2014-Jul-24 03:30S 12°55' W 151°41'0 0.6 27.9
2014-Jul-24 03:22S 12°55' W 151°41'1 0.4 27.9
2014-Jul-24 01:56S 12°55' W 151°40'0 0.0 27.9
2014-Jul-24 01:53S 12°55' W 151°40'1 0.7 27.9
2014-Jul-24 01:00S 12°55' W 151°39'1 7.9 27.9
2014-Jul-24 00:55S 12°55' W 151°39'0 0.0 27.9
2014-Jul-23 23:24S 12°55' W 151°39'0 0.0
2014-Jul-23 23:22S 12°55' W 151°39'1 0.3 27.9
2014-Jul-23 20:58S 12°55' W 151°38'0 0.0 27.7
2014-Jul-23 20:07S 12°55' W 151°38'0 0.5 27.7
2014-Jul-23 19:16S 12°55' W 151°38'0 0.0 27.7
2014-Jul-23 18:26S 12°55' W 151°38'0 0.0 27.7
2014-Jul-23 17:55S 12°55' W 151°38'1 0.4 27.7
2014-Jul-23 16:16S 12°55' W 151°37'0 0.1 27.7
2014-Jul-23 15:29S 12°55' W 151°37'0 0.2 27.7
2014-Jul-23 14:57S 12°55' W 151°37'1 7.2 27.7
2014-Jul-23 14:49S 12°55' W 151°36'0 0.2 27.7
2014-Jul-23 13:44S 12°55' W 151°36'0 0.0 27.7
2014-Jul-23 13:16S 12°55' W 151°36'1 0.7 27.7
2014-Jul-23 12:28S 12°55' W 151°35'1 3.8 27.7
2014-Jul-23 12:14S 12°55' W 151°34'0 0.1 27.7
2014-Jul-23 10:46S 12°55' W 151°34'1 0.4 27.8
2014-Jul-23 08:56S 12°55' W 151°34'0 0.1 27.8
2014-Jul-23 08:11S 12°55' W 151°34'1 0.9 27.8
2014-Jul-23 07:15S 12°55' W 151°33'1 0.9 27.8
2014-Jul-23 06:25S 12°55' W 151°34'1 0.3 27.8
2014-Jul-23 04:24S 12°56' W 151°33'0 0.2 27.8
2014-Jul-23 03:53S 12°56' W 151°33'0 0.4 27.8
2014-Jul-23 03:41S 12°56' W 151°33'1 0.7 27.8
2014-Jul-23 02:45S 12°56' W 151°32'0 1.8 27.8
2014-Jul-23 02:41S 12°56' W 151°32'0 0.4 27.8
2014-Jul-23 02:00S 12°55' W 151°32'1 0.7 27.9
2014-Jul-23 01:12S 12°56' W 151°32'1 0.6 27.8
2014-Jul-22 23:30S 12°55' W 151°31'1 0.4 27.9
2014-Jul-22 20:27S 12°56' W 151°30'1 0.8 27.8
2014-Jul-22 19:41S 12°56' W 151°29'0 0.0 27.8
2014-Jul-22 18:46S 12°56' W 151°29'0 0.1 27.8
2014-Jul-22 16:50S 12°57' W 151°29'0 0.3 27.8
2014-Jul-22 15:51S 12°57' W 151°29'0 0.2 27.8
2014-Jul-22 15:12S 12°56' W 151°29'0 6.1 27.8
2014-Jul-22 15:09S 12°57' W 151°29'1 6.5 27.8
2014-Jul-22 15:00S 12°56' W 151°28'0 0.0 27.8
2014-Jul-22 13:29S 12°56' W 151°28'1 0.5 27.8
2014-Jul-22 10:57S 12°56' W 151°27'2 1.2 27.8
2014-Jul-22 09:13S 12°56' W 151°25'0 0.0 27.8
2014-Jul-22 08:26S 12°56' W 151°25'1 0.7 27.8
2014-Jul-22 07:40S 12°57' W 151°25'1 0.9 27.8
2014-Jul-22 06:53S 12°57' W 151°25'0 0.0 27.8
2014-Jul-22 06:50S 12°57' W 151°25'0 0.2 27.8
2014-Jul-22 04:26S 12°58' W 151°25'1 1.2 27.8
2014-Jul-22 03:54S 12°57' W 151°24'0 0.0 27.8
2014-Jul-22 03:10S 12°57' W 151°24'0 0.7 27.8
2014-Jul-22 03:05S 12°57' W 151°24'0 0.5 27.8
2014-Jul-22 02:44S 12°57' W 151°24'0 0.5 27.8
2014-Jul-22 02:16S 12°57' W 151°24'0 0.4 27.8
2014-Jul-22 01:26S 12°57' W 151°24'0 0.0 27.8
2014-Jul-22 01:23S 12°57' W 151°24'1 0.4 27.8
2014-Jul-21 23:44S 12°57' W 151°23'1 0.4 27.8
2014-Jul-21 20:46S 12°57' W 151°22'1 1.3 27.7
2014-Jul-21 20:01S 12°57' W 151°21'1 3.4 27.7
2014-Jul-21 19:51S 12°58' W 151°21'0 0.0 27.7
2014-Jul-21 19:08S 12°58' W 151°21'1 0.9 27.7
2014-Jul-21 18:12S 12°59' W 151°20'0 0.0 27.7
2014-Jul-21 17:23S 12°59' W 151°20'0 0.0 27.6
2014-Jul-21 17:20S 12°59' W 151°20'1 0.5 27.6
2014-Jul-21 16:08S 12°59' W 151°20'0 0.0 27.6
2014-Jul-21 15:45S 12°59' W 151°20'0 0.0 27.7
2014-Jul-21 15:42S 12°59' W 151°20'0 0.4 27.7
2014-Jul-21 15:16S 12°59' W 151°20'0 1.4 27.7
2014-Jul-21 15:11S 12°59' W 151°20'0 0.0 27.7
2014-Jul-21 14:37S 12°59' W 151°20'0 0.5 27.7
2014-Jul-21 13:39S 12°59' W 151°19'1 0.8 27.7
2014-Jul-21 12:48S 12°59' W 151°19'0 4.0 27.7
2014-Jul-21 12:41S 12°60' W 151°18'0 0.0 27.7
2014-Jul-21 11:09S 12°60' W 151°18'2 0.7 27.7
2014-Jul-21 08:50S 13°01' W 151°17'1 0.7 27.7
2014-Jul-21 08:03S 13°01' W 151°17'0 0.0 27.7
2014-Jul-21 08:00S 13°01' W 151°17'1 1.1 27.7
2014-Jul-21 07:14S 13°01' W 151°16'0 0.0 27.7
2014-Jul-21 07:12S 13°01' W 151°16'2 1.8 27.7
2014-Jul-21 06:16S 13°03' W 151°16'0 0.0 27.7
2014-Jul-21 04:56S 13°03' W 151°16'1 0.7 27.7
2014-Jul-21 04:03S 13°04' W 151°16'0 0.0 27.7
2014-Jul-21 03:30S 13°04' W 151°16'0 0.5 27.7
2014-Jul-21 03:15S 13°04' W 151°16'2 2.0 27.7
2014-Jul-21 02:30S 13°05' W 151°15'0 0.0 27.7
2014-Jul-21 02:27S 13°05' W 151°15'0 0.0 27.7
2014-Jul-21 01:36S 13°05' W 151°15'0 5.9 27.8
2014-Jul-21 01:33S 13°04' W 151°15'1 0.4 27.8
2014-Jul-20 23:58S 13°05' W 151°15'0 0.0 27.8
2014-Jul-20 23:55S 13°05' W 151°15'3 0.7 27.8
2014-Jul-20 20:21S 13°05' W 151°12'0 2.3 27.7
2014-Jul-20 20:16S 13°05' W 151°12'1 0.7 27.7
2014-Jul-20 19:28S 13°05' W 151°12'0 0.6 27.7
2014-Jul-20 18:42S 13°06' W 151°11'0 0.6 27.7
2014-Jul-20 17:52S 13°06' W 151°11'1 0.8 27.7
2014-Jul-20 16:13S 13°06' W 151°10'1 0.8 27.7
2014-Jul-20 15:30S 13°07' W 151°10'1 7.4 27.7
2014-Jul-20 15:23S 13°07' W 151°09'0 0.0 27.7
2014-Jul-20 15:02S 13°07' W 151°09'0 0.8 27.7
2014-Jul-20 14:32S 13°07' W 151°09'0 0.6 27.7
2014-Jul-20 13:52S 13°07' W 151°09'1 3.3 27.7
2014-Jul-20 13:40S 13°07' W 151°09'0 0.0 27.7
2014-Jul-20 12:59S 13°07' W 151°09'1 8.3 27.7
2014-Jul-20 12:51S 13°08' W 151°08'0 0.0 27.7
2014-Jul-20 11:15S 13°08' W 151°08'2 0.7 27.7
2014-Jul-20 09:08S 13°09' W 151°07'0 0.0 27.7
2014-Jul-20 08:20S 13°09' W 151°07'1 1.1 27.7
2014-Jul-20 07:28S 13°09' W 151°06'1 0.6 27.7
2014-Jul-20 05:24S 13°10' W 151°05'0 0.0 27.7
2014-Jul-20 04:14S 13°10' W 151°05'0 0.0 27.7
2014-Jul-20 03:49S 13°10' W 151°05'2 0.8 27.8
2014-Jul-20 01:42S 13°11' W 151°04'0 0.0 27.8
2014-Jul-20 00:57S 13°11' W 151°04'116.4 27.8
2014-Jul-20 00:54S 13°11' W 151°03'0 0.0 27.8
2014-Jul-20 00:09S 13°11' W 151°03'0 0.0 27.8
2014-Jul-20 00:07S 13°11' W 151°03'1 0.7 27.8
2014-Jul-19 22:23S 13°12' W 151°02'1 0.4 27.8
2014-Jul-19 20:41S 13°12' W 151°02'0 0.0 27.7
2014-Jul-19 19:48S 13°12' W 151°02'0 0.2 27.7
2014-Jul-19 19:04S 13°12' W 151°01'1 0.6 27.7
2014-Jul-19 18:08S 13°12' W 151°01'1 0.5 27.7
2014-Jul-19 16:47S 13°12' W 151°00'0 1.2 27.7
2014-Jul-19 16:44S 13°12' W 151°00'0 0.3 27.7
2014-Jul-19 15:28S 13°13' W 150°60'0 1.0 27.7
2014-Jul-19 15:03S 13°13' W 150°60'1 1.1 27.7
2014-Jul-19 14:03S 13°13' W 150°59'0 0.3 27.7
2014-Jul-19 13:52S 13°13' W 150°59'0 0.0 27.7
2014-Jul-19 13:43S 13°13' W 150°59'0 0.1 27.7
2014-Jul-19 13:09S 13°13' W 150°59'111.3 27.7
2014-Jul-19 13:02S 13°14' W 150°57'0 0.0 27.7
2014-Jul-19 11:29S 13°14' W 150°57'215.4 27.7
2014-Jul-19 11:20S 13°14' W 150°55'0 0.0 27.7
2014-Jul-19 08:40S 13°14' W 150°55'1 1.0 27.7
2014-Jul-19 07:52S 13°15' W 150°54'0 0.0 27.7
2014-Jul-19 07:01S 13°15' W 150°54'1 0.4 27.8
2014-Jul-19 04:23S 13°15' W 150°53'0 2.5 27.8
2014-Jul-19 04:15S 13°15' W 150°53'1 0.7 27.8
2014-Jul-19 02:50S 13°15' W 150°52'0 0.8 27.8
2014-Jul-19 02:38S 13°15' W 150°52'1 0.9 27.8
2014-Jul-19 01:54S 13°15' W 150°52'0 0.0 27.8
2014-Jul-19 01:06S 13°15' W 150°52'1 1.4 27.8
2014-Jul-19 00:14S 13°16' W 150°50'1 0.7 27.8
2014-Jul-18 22:36S 13°16' W 150°49'121.1 27.8
2014-Jul-18 22:33S 13°17' W 150°48'0 0.0 27.8
2014-Jul-18 21:00S 13°17' W 150°48'0 0.1 27.7
2014-Jul-18 20:10S 13°17' W 150°48'0 0.4 27.7
2014-Jul-18 19:24S 13°17' W 150°48'1 1.1 27.7
2014-Jul-18 18:29S 13°18' W 150°47'1 0.6 27.7
2014-Jul-18 17:15S 13°18' W 150°47'0 0.1 27.7
2014-Jul-18 15:50S 13°18' W 150°47'0 0.4 27.7
2014-Jul-18 15:36S 13°18' W 150°47'1 0.7 27.7
2014-Jul-18 14:14S 13°18' W 150°46'0 0.0 27.7
2014-Jul-18 13:21S 13°18' W 150°46'110.2 27.8
2014-Jul-18 13:13S 13°18' W 150°45'0 0.0 27.7
2014-Jul-18 12:28S 13°18' W 150°45'0 0.0 27.8
2014-Jul-18 11:42S 13°18' W 150°45'1 4.2 27.7
2014-Jul-18 11:28S 13°19' W 150°44'0 0.0 27.8
2014-Jul-18 09:02S 13°19' W 150°44'121.3 27.8
2014-Jul-18 08:59S 13°19' W 150°43'   27.8
Track history (hours):
 
Tides and Currents Weather Stations Pressure Air Temp Water Temp Dewpoint Dewpoint Depression Visibility Wind Speed Wind Dir Waves Ship Positions

Aadnyj

Last reported at 2014-Jul-28 08:52 UTC. Time now 2014-Jul-28 10:28 UTC.
Position S 13°05' W 152°11'.

Length 56 m.

Type: Towing. MMSI: 413600286.

Water temperature 27.8 ° C

Date/timePositionNaut miles runAvg speedWind from/ knotsBaromVisibWave heightAir tempDewpointWater temp
2014-Jul-28 08:52S 13°05' W 152°11'0 0.2 27.8
2014-Jul-28 08:11S 13°05' W 152°11'0 0.0 27.8
2014-Jul-28 08:07S 13°05' W 152°11'0 0.4 27.8
2014-Jul-28 07:16S 13°05' W 152°11'0 0.0 27.9
2014-Jul-28 07:15S 13°05' W 152°11'0 0.5 27.9
2014-Jul-28 06:28S 13°05' W 152°10'1 0.7 27.9
2014-Jul-28 04:37S 13°06' W 152°09'0 0.6 27.9
2014-Jul-28 04:01S 13°07' W 152°09'0 3.2 27.9
2014-Jul-28 03:56S 13°07' W 152°09'0 0.0 27.9
2014-Jul-28 02:56S 13°07' W 152°09'0 2.0 27.9
2014-Jul-28 02:45S 13°07' W 152°09'0 0.3 27.9
2014-Jul-28 01:57S 13°07' W 152°09'0 0.4 27.9
2014-Jul-28 01:04S 13°07' W 152°09'0 0.6 27.8
2014-Jul-28 00:16S 13°07' W 152°09'1 0.7 27.8
2014-Jul-27 22:34S 13°06' W 152°08'0 0.0 27.7
2014-Jul-27 20:24S 13°06' W 152°08'1 0.7 27.7
2014-Jul-27 19:37S 13°06' W 152°07'0 0.0 27.7
2014-Jul-27 18:45S 13°06' W 152°07'0 0.0 27.6
2014-Jul-27 18:43S 13°06' W 152°07'0 0.1 27.6
2014-Jul-27 17:29S 13°06' W 152°08'0 0.2 27.6
2014-Jul-27 15:54S 13°06' W 152°07'0 0.4 27.6
2014-Jul-27 15:29S 13°06' W 152°07'0 0.9 27.6
2014-Jul-27 15:20S 13°06' W 152°07'0 0.0 27.6
2014-Jul-27 14:13S 13°06' W 152°07'1 3.6 27.6
2014-Jul-27 14:01S 13°05' W 152°07'0 0.0 27.6
2014-Jul-27 13:22S 13°05' W 152°07'0 0.9 27.6
2014-Jul-27 13:14S 13°05' W 152°07'0 0.0 27.6
2014-Jul-27 11:44S 13°05' W 152°07'1 5.5 27.6
2014-Jul-27 11:34S 13°04' W 152°07'0 0.0 27.6
2014-Jul-27 09:16S 13°04' W 152°07'117.1 27.6
2014-Jul-27 09:11S 13°04' W 152°06'0 0.0 27.6
2014-Jul-27 08:23S 13°04' W 152°06'0 0.0 27.6
2014-Jul-27 07:38S 13°04' W 152°06'0 0.4 27.7
2014-Jul-27 07:30S 13°04' W 152°06'1 1.1 27.7
2014-Jul-27 06:44S 13°03' W 152°05'1 0.3 27.7
2014-Jul-27 05:06S 13°03' W 152°05'0 0.1 27.7
2014-Jul-27 04:26S 13°03' W 152°05'1 0.7 27.7
2014-Jul-27 03:28S 13°03' W 152°05'0 0.6 27.8
2014-Jul-27 03:02S 13°03' W 152°05'0 0.0 27.8
2014-Jul-27 02:59S 13°03' W 152°05'0 2.0 27.8
2014-Jul-27 02:45S 13°03' W 152°04'0 1.2
2014-Jul-27 02:42S 13°03' W 152°04'1 1.8 27.8
2014-Jul-27 02:06S 13°03' W 152°03'0 0.2 27.8
2014-Jul-27 01:15S 13°03' W 152°03'1 0.9 27.9
2014-Jul-27 00:30S 13°03' W 152°03'1 0.5 27.8
2014-Jul-26 22:49S 13°03' W 152°03'0 1.7 27.8
2014-Jul-26 22:46S 13°03' W 152°03'1 0.5 27.8
2014-Jul-26 20:42S 13°02' W 152°02'1 0.9 27.7
2014-Jul-26 19:57S 13°02' W 152°02'0 0.5 27.7
2014-Jul-26 19:05S 13°01' W 152°02'0 0.1 27.7
2014-Jul-26 18:10S 13°01' W 152°02'0 0.0 27.7
2014-Jul-26 18:03S 13°01' W 152°02'1 0.8 27.7
2014-Jul-26 16:25S 13°01' W 152°01'0 0.6 27.7
2014-Jul-26 15:56S 13°01' W 152°01'1 6.6 27.7
2014-Jul-26 15:49S 13°00' W 152°00'1 0.8 27.7
2014-Jul-26 14:24S 13°01' W 151°59'0 0.0 27.7
2014-Jul-26 14:15S 13°01' W 151°59'115.2 27.7
2014-Jul-26 14:10S 13°00' W 151°58'0 0.0 27.7
2014-Jul-26 13:33S 13°00' W 151°58'0 0.0 27.7
2014-Jul-26 12:40S 13°00' W 151°58'0 0.4 27.7
2014-Jul-26 11:55S 13°00' W 151°58'1 3.1 27.7
2014-Jul-26 11:45S 12°60' W 151°58'0 0.0 27.7
2014-Jul-26 10:08S 12°60' W 151°58'0 0.1 27.7
2014-Jul-26 08:45S 13°00' W 151°58'0 0.0 27.7
2014-Jul-26 08:00S 13°00' W 151°58'0 0.0 27.7
2014-Jul-26 07:57S 13°00' W 151°58'2 0.9 27.7
2014-Jul-26 06:13S 12°59' W 151°57'0 0.0 27.7
2014-Jul-26 04:00S 12°59' W 151°57'1 0.7 27.8
2014-Jul-26 03:13S 12°59' W 151°56'0 0.0 27.9
2014-Jul-26 03:10S 12°59' W 151°56'1 5.4 27.9
2014-Jul-26 03:02S 12°59' W 151°55'0 0.0 27.9
2014-Jul-26 01:29S 12°59' W 151°55'0 0.4 27.9
2014-Jul-26 00:41S 12°60' W 151°55'0 2.5 27.9
2014-Jul-26 00:30S 12°60' W 151°55'0 0.0 27.9
2014-Jul-25 23:02S 12°60' W 151°55'0 0.0 27.8
2014-Jul-25 22:59S 12°60' W 151°55'1 0.6 27.8
2014-Jul-25 21:04S 12°59' W 151°55'1 8.8 27.7
2014-Jul-25 20:59S 12°58' W 151°54'0 5.5 27.7
2014-Jul-25 20:55S 12°59' W 151°54'0 0.0
2014-Jul-25 20:15S 12°59' W 151°54'1 0.6 27.7
2014-Jul-25 19:25S 12°59' W 151°54'0 0.3 27.7
2014-Jul-25 18:38S 12°59' W 151°54'0 0.3 27.7
2014-Jul-25 16:58S 12°58' W 151°53'0 2.6 27.7
2014-Jul-25 16:55S 12°58' W 151°53'1 0.3 27.7
2014-Jul-25 15:15S 12°58' W 151°53'0 0.5 27.7
2014-Jul-25 14:29S 12°58' W 151°53'230.4 27.7
2014-Jul-25 14:26S 12°58' W 151°51'0 0.0 27.7
2014-Jul-25 12:53S 12°58' W 151°51'0 0.5 27.6
2014-Jul-25 12:06S 12°58' W 151°51'0 1.8 27.7
2014-Jul-25 11:54S 12°58' W 151°50'0 0.0 27.7
2014-Jul-25 10:22S 12°58' W 151°50'1 0.7 27.7
2014-Jul-25 09:06S 12°58' W 151°50'0 0.0 27.7
2014-Jul-25 08:15S 12°58' W 151°50'0 0.4 27.7
2014-Jul-25 07:29S 12°57' W 151°50'0 0.4 27.7
2014-Jul-25 06:35S 12°57' W 151°49'1 0.4 27.7
2014-Jul-25 04:29S 12°57' W 151°49'0 0.3 27.8
2014-Jul-25 03:30S 12°57' W 151°48'0 0.6 27.9
2014-Jul-25 03:16S 12°57' W 151°48'1 2.4 27.9
2014-Jul-25 02:50S 12°56' W 151°48'1 0.7 27.9
2014-Jul-25 01:42S 12°57' W 151°48'0 0.4 27.9
2014-Jul-25 00:52S 12°57' W 151°47'0 2.2 27.9
2014-Jul-25 00:44S 12°57' W 151°47'0 0.0 27.9
2014-Jul-24 23:13S 12°57' W 151°47'0 3.4 27.9
2014-Jul-24 23:10S 12°57' W 151°47'1 0.2 27.9
2014-Jul-24 20:38S 12°57' W 151°47'0 0.4 27.7
2014-Jul-24 19:45S 12°57' W 151°46'0 0.3 27.7
2014-Jul-24 18:59S 12°57' W 151°46'1 1.1 27.7
2014-Jul-24 18:04S 12°56' W 151°45'0 0.5 27.7
2014-Jul-24 17:26S 12°56' W 151°45'1 0.4 27.7
2014-Jul-24 15:48S 12°56' W 151°45'0 0.4 27.7
2014-Jul-24 15:03S 12°56' W 151°45'0 0.3 27.7
2014-Jul-24 14:46S 12°56' W 151°45'0 1.4 27.7
2014-Jul-24 14:38S 12°56' W 151°45'1 0.4 27.7
2014-Jul-24 13:05S 12°56' W 151°44'1 0.6 27.7
2014-Jul-24 12:16S 12°56' W 151°43'0 1.0 27.7
2014-Jul-24 12:08S 12°56' W 151°43'0 0.3 27.7
2014-Jul-24 10:35S 12°56' W 151°43'1 0.6 27.7
2014-Jul-24 08:37S 12°56' W 151°42'0 0.0 27.7
2014-Jul-24 07:54S 12°56' W 151°42'0 0.0 27.7
2014-Jul-24 07:51S 12°56' W 151°42'0 0.2 27.7
2014-Jul-24 06:59S 12°56' W 151°42'0 1.2 27.8
2014-Jul-24 06:56S 12°56' W 151°42'1 0.4 27.8
2014-Jul-24 05:02S 12°55' W 151°41'1 0.8 27.8
2014-Jul-24 04:00S 12°55' W 151°41'0 0.5 27.9
2014-Jul-24 03:53S 12°55' W 151°41'0 0.0 27.9
2014-Jul-24 03:30S 12°55' W 151°41'0 0.6 27.9
2014-Jul-24 03:22S 12°55' W 151°41'1 0.4 27.9
2014-Jul-24 01:56S 12°55' W 151°40'0 0.0 27.9
2014-Jul-24 01:53S 12°55' W 151°40'1 0.7 27.9
2014-Jul-24 01:00S 12°55' W 151°39'1 7.9 27.9
2014-Jul-24 00:55S 12°55' W 151°39'0 0.0 27.9
2014-Jul-23 23:24S 12°55' W 151°39'0 0.0
2014-Jul-23 23:22S 12°55' W 151°39'1 0.3 27.9
2014-Jul-23 20:58S 12°55' W 151°38'0 0.0 27.7
2014-Jul-23 20:07S 12°55' W 151°38'0 0.5 27.7
2014-Jul-23 19:16S 12°55' W 151°38'0 0.0 27.7
2014-Jul-23 18:26S 12°55' W 151°38'0 0.0 27.7
2014-Jul-23 17:55S 12°55' W 151°38'1 0.4 27.7
2014-Jul-23 16:16S 12°55' W 151°37'0 0.1 27.7
2014-Jul-23 15:29S 12°55' W 151°37'0 0.2 27.7
2014-Jul-23 14:57S 12°55' W 151°37'1 7.2 27.7
2014-Jul-23 14:49S 12°55' W 151°36'0 0.2 27.7
2014-Jul-23 13:44S 12°55' W 151°36'0 0.0 27.7
2014-Jul-23 13:16S 12°55' W 151°36'1 0.7 27.7
2014-Jul-23 12:28S 12°55' W 151°35'1 3.8 27.7
2014-Jul-23 12:14S 12°55' W 151°34'0 0.1 27.7
2014-Jul-23 10:46S 12°55' W 151°34'1 0.4 27.8
2014-Jul-23 08:56S 12°55' W 151°34'0 0.1 27.8
2014-Jul-23 08:11S 12°55' W 151°34'1 0.9 27.8
2014-Jul-23 07:15S 12°55' W 151°33'1 0.9 27.8
2014-Jul-23 06:25S 12°55' W 151°34'1 0.3 27.8
2014-Jul-23 04:24S 12°56' W 151°33'0 0.2 27.8
2014-Jul-23 03:53S 12°56' W 151°33'0 0.4 27.8
2014-Jul-23 03:41S 12°56' W 151°33'1 0.7 27.8
2014-Jul-23 02:45S 12°56' W 151°32'0 1.8 27.8
2014-Jul-23 02:41S 12°56' W 151°32'0 0.4 27.8
2014-Jul-23 02:00S 12°55' W 151°32'1 0.7 27.9
2014-Jul-23 01:12S 12°56' W 151°32'1 0.6 27.8
2014-Jul-22 23:30S 12°55' W 151°31'1 0.4 27.9
2014-Jul-22 20:27S 12°56' W 151°30'1 0.8 27.8
2014-Jul-22 19:41S 12°56' W 151°29'0 0.0 27.8
2014-Jul-22 18:46S 12°56' W 151°29'0 0.1 27.8
2014-Jul-22 16:50S 12°57' W 151°29'0 0.3 27.8
2014-Jul-22 15:51S 12°57' W 151°29'0 0.2 27.8
2014-Jul-22 15:12S 12°56' W 151°29'0 6.1 27.8
2014-Jul-22 15:09S 12°57' W 151°29'1 6.5 27.8
2014-Jul-22 15:00S 12°56' W 151°28'0 0.0 27.8
2014-Jul-22 13:29S 12°56' W 151°28'1 0.5 27.8
2014-Jul-22 10:57S 12°56' W 151°27'2 1.2 27.8
2014-Jul-22 09:13S 12°56' W 151°25'0 0.0 27.8
2014-Jul-22 08:26S 12°56' W 151°25'1 0.7 27.8
2014-Jul-22 07:40S 12°57' W 151°25'1 0.9 27.8
2014-Jul-22 06:53S 12°57' W 151°25'0 0.0 27.8
2014-Jul-22 06:50S 12°57' W 151°25'0 0.2 27.8
2014-Jul-22 04:26S 12°58' W 151°25'1 1.2 27.8
2014-Jul-22 03:54S 12°57' W 151°24'0 0.0 27.8
2014-Jul-22 03:10S 12°57' W 151°24'0 0.7 27.8
2014-Jul-22 03:05S 12°57' W 151°24'0 0.5 27.8
2014-Jul-22 02:44S 12°57' W 151°24'0 0.5 27.8
2014-Jul-22 02:16S 12°57' W 151°24'0 0.4 27.8
2014-Jul-22 01:26S 12°57' W 151°24'0 0.0 27.8
2014-Jul-22 01:23S 12°57' W 151°24'1 0.4 27.8
2014-Jul-21 23:44S 12°57' W 151°23'1 0.4 27.8
2014-Jul-21 20:46S 12°57' W 151°22'1 1.3 27.7
2014-Jul-21 20:01S 12°57' W 151°21'1 3.4 27.7
2014-Jul-21 19:51S 12°58' W 151°21'0 0.0 27.7
2014-Jul-21 19:08S 12°58' W 151°21'1 0.9 27.7
2014-Jul-21 18:12S 12°59' W 151°20'0 0.0 27.7
2014-Jul-21 17:23S 12°59' W 151°20'0 0.0 27.6
2014-Jul-21 17:20S 12°59' W 151°20'1 0.5 27.6
2014-Jul-21 16:08S 12°59' W 151°20'0 0.0 27.6
2014-Jul-21 15:45S 12°59' W 151°20'0 0.0 27.7
2014-Jul-21 15:42S 12°59' W 151°20'0 0.4 27.7
2014-Jul-21 15:16S 12°59' W 151°20'0 1.4 27.7
2014-Jul-21 15:11S 12°59' W 151°20'0 0.0 27.7
2014-Jul-21 14:37S 12°59' W 151°20'0 0.5 27.7
2014-Jul-21 13:39S 12°59' W 151°19'1 0.8 27.7
2014-Jul-21 12:48S 12°59' W 151°19'0 4.0 27.7
2014-Jul-21 12:41S 12°60' W 151°18'0 0.0 27.7
2014-Jul-21 11:09S 12°60' W 151°18'2 0.7 27.7
2014-Jul-21 08:50S 13°01' W 151°17'1 0.7 27.7
2014-Jul-21 08:03S 13°01' W 151°17'0 0.0 27.7
2014-Jul-21 08:00S 13°01' W 151°17'1 1.1 27.7
2014-Jul-21 07:14S 13°01' W 151°16'0 0.0 27.7
2014-Jul-21 07:12S 13°01' W 151°16'2 1.8 27.7
2014-Jul-21 06:16S 13°03' W 151°16'0 0.0 27.7
2014-Jul-21 04:56S 13°03' W 151°16'1 0.7 27.7
2014-Jul-21 04:03S 13°04' W 151°16'0 0.0 27.7
2014-Jul-21 03:30S 13°04' W 151°16'0 0.5 27.7
2014-Jul-21 03:15S 13°04' W 151°16'2 2.0 27.7
2014-Jul-21 02:30S 13°05' W 151°15'0 0.0 27.7
2014-Jul-21 02:27S 13°05' W 151°15'0 0.0 27.7
2014-Jul-21 01:36S 13°05' W 151°15'0 5.9 27.8
2014-Jul-21 01:33S 13°04' W 151°15'1 0.4 27.8
2014-Jul-20 23:58S 13°05' W 151°15'0 0.0 27.8
2014-Jul-20 23:55S 13°05' W 151°15'3 0.7 27.8
2014-Jul-20 20:21S 13°05' W 151°12'0 2.3 27.7
2014-Jul-20 20:16S 13°05' W 151°12'1 0.7 27.7
2014-Jul-20 19:28S 13°05' W 151°12'0 0.6 27.7
2014-Jul-20 18:42S 13°06' W 151°11'0 0.6 27.7
2014-Jul-20 17:52S 13°06' W 151°11'1 0.8 27.7
2014-Jul-20 16:13S 13°06' W 151°10'1 0.8 27.7
2014-Jul-20 15:30S 13°07' W 151°10'1 7.4 27.7
2014-Jul-20 15:23S 13°07' W 151°09'0 0.0 27.7
2014-Jul-20 15:02S 13°07' W 151°09'0 0.8 27.7
2014-Jul-20 14:32S 13°07' W 151°09'0 0.6 27.7
2014-Jul-20 13:52S 13°07' W 151°09'1 3.3 27.7
2014-Jul-20 13:40S 13°07' W 151°09'0 0.0 27.7
2014-Jul-20 12:59S 13°07' W 151°09'1 8.3 27.7
2014-Jul-20 12:51S 13°08' W 151°08'0 0.0 27.7
2014-Jul-20 11:15S 13°08' W 151°08'2 0.7 27.7
2014-Jul-20 09:08S 13°09' W 151°07'0 0.0 27.7
2014-Jul-20 08:20S 13°09' W 151°07'1 1.1 27.7
2014-Jul-20 07:28S 13°09' W 151°06'1 0.6 27.7
2014-Jul-20 05:24S 13°10' W 151°05'0 0.0 27.7
2014-Jul-20 04:14S 13°10' W 151°05'0 0.0 27.7
2014-Jul-20 03:49S 13°10' W 151°05'2 0.8 27.8
2014-Jul-20 01:42S 13°11' W 151°04'0 0.0 27.8
2014-Jul-20 00:57S 13°11' W 151°04'116.4 27.8
2014-Jul-20 00:54S 13°11' W 151°03'0 0.0 27.8
2014-Jul-20 00:09S 13°11' W 151°03'0 0.0 27.8
2014-Jul-20 00:07S 13°11' W 151°03'1 0.7 27.8
2014-Jul-19 22:23S 13°12' W 151°02'1 0.4 27.8
2014-Jul-19 20:41S 13°12' W 151°02'0 0.0 27.7
2014-Jul-19 19:48S 13°12' W 151°02'0 0.2 27.7
2014-Jul-19 19:04S 13°12' W 151°01'1 0.6 27.7
2014-Jul-19 18:08S 13°12' W 151°01'1 0.5 27.7
2014-Jul-19 16:47S 13°12' W 151°00'0 1.2 27.7
2014-Jul-19 16:44S 13°12' W 151°00'0 0.3 27.7
2014-Jul-19 15:28S 13°13' W 150°60'0 1.0 27.7
2014-Jul-19 15:03S 13°13' W 150°60'1 1.1 27.7
2014-Jul-19 14:03S 13°13' W 150°59'0 0.3 27.7
2014-Jul-19 13:52S 13°13' W 150°59'0 0.0 27.7
2014-Jul-19 13:43S 13°13' W 150°59'0 0.1 27.7
2014-Jul-19 13:09S 13°13' W 150°59'111.3 27.7
2014-Jul-19 13:02S 13°14' W 150°57'0 0.0 27.7
2014-Jul-19 11:29S 13°14' W 150°57'215.4 27.7
2014-Jul-19 11:20S 13°14' W 150°55'0 0.0 27.7
2014-Jul-19 08:40S 13°14' W 150°55'1 1.0 27.7
2014-Jul-19 07:52S 13°15' W 150°54'0 0.0 27.7
2014-Jul-19 07:01S 13°15' W 150°54'1 0.4 27.8
2014-Jul-19 04:23S 13°15' W 150°53'0 2.5 27.8
2014-Jul-19 04:15S 13°15' W 150°53'1 0.7 27.8
2014-Jul-19 02:50S 13°15' W 150°52'0 0.8 27.8
2014-Jul-19 02:38S 13°15' W 150°52'1 0.9 27.8
2014-Jul-19 01:54S 13°15' W 150°52'0 0.0 27.8
2014-Jul-19 01:06S 13°15' W 150°52'1 1.4 27.8
2014-Jul-19 00:14S 13°16' W 150°50'1 0.7 27.8
2014-Jul-18 22:36S 13°16' W 150°49'121.1 27.8
2014-Jul-18 22:33S 13°17' W 150°48'0 0.0 27.8
2014-Jul-18 21:00S 13°17' W 150°48'0 0.1 27.7
2014-Jul-18 20:10S 13°17' W 150°48'0 0.4 27.7
2014-Jul-18 19:24S 13°17' W 150°48'1 1.1 27.7
2014-Jul-18 18:29S 13°18' W 150°47'1 0.6 27.7
2014-Jul-18 17:15S 13°18' W 150°47'0 0.1 27.7
2014-Jul-18 15:50S 13°18' W 150°47'0 0.4 27.7
2014-Jul-18 15:36S 13°18' W 150°47'1 0.7 27.7
2014-Jul-18 14:14S 13°18' W 150°46'0 0.0 27.7
2014-Jul-18 13:21S 13°18' W 150°46'110.2 27.8
2014-Jul-18 13:13S 13°18' W 150°45'0 0.0 27.7
2014-Jul-18 12:28S 13°18' W 150°45'0 0.0 27.8
2014-Jul-18 11:42S 13°18' W 150°45'1 4.2 27.7
2014-Jul-18 11:28S 13°19' W 150°44'0 0.0 27.8
2014-Jul-18 09:02S 13°19' W 150°44'121.3 27.8
2014-Jul-18 08:59S 13°19' W 150°43'   27.8

Dump ship's entire track history